Munin Explorer — C4XX2 — position and weather

sailwx.info

Track history (hours):
 
Tides and Currents Weather Stations Pressure Air Temp Water Temp Dewpoint Dewpoint Depression Visibility Wind Speed Wind Dir Waves Ship Positions

Munin Explorer

Last reported at 2014-Dec-15 05:04 UTC. Time now 2014-Dec-22 19:32 UTC.
Position N 56°35' W 002°14'.

Length 60 m; draft 7 m.

Type: Other ship. MMSI: 210228000.

Date/timePositionNaut miles runAvg speedWind from/ knotsBaromVisibWave heightAir tempDewpointWater temp
2014-Dec-15 05:04N 56°35' W 002°14'3 5.8
2014-Dec-15 04:33N 56°32' W 002°13'6 6.3
2014-Dec-15 03:33N 56°25' W 002°13'7 7.5
2014-Dec-15 02:33N 56°19' W 002°20'8 7.7
2014-Dec-15 01:33N 56°12' W 002°26'9 9.1
2014-Dec-15 00:33N 56°08' W 002°41'10 9.7
2014-Dec-14 23:33N 56°04' W 002°57'3 3.2
2014-Dec-14 22:31N 56°01' W 003°00'0 0.0
2014-Dec-14 21:22N 56°01' W 003°00'0 0.0
2014-Dec-14 20:25N 56°01' W 003°00'0 0.0
2014-Dec-14 19:25N 56°01' W 003°00'0 0.0
2014-Dec-14 18:25N 56°01' W 003°00'0 0.0
2014-Dec-14 17:28N 56°01' W 003°00'0 0.0
2014-Dec-14 16:22N 56°01' W 003°00'0 0.0
2014-Dec-14 15:28N 56°01' W 003°00'0 0.0
2014-Dec-14 14:31N 56°01' W 003°00'0 0.0
2014-Dec-14 13:31N 56°01' W 003°00'0 0.0
2014-Dec-14 12:31N 56°01' W 003°00'0 0.0
2014-Dec-14 11:31N 56°01' W 003°00'0 0.0
2014-Dec-14 10:31N 56°01' W 003°00'0 0.0
2014-Dec-14 09:31N 56°01' W 003°00'0 0.0
2014-Dec-14 08:31N 56°01' W 003°00'0 0.0
2014-Dec-14 07:22N 56°01' W 003°00'0 0.0
2014-Dec-14 06:25N 56°01' W 003°00'0 0.0
2014-Dec-14 05:25N 56°01' W 003°00'0 0.0
2014-Dec-14 04:25N 56°01' W 003°00'0 0.0
2014-Dec-14 03:28N 56°01' W 003°00'0 0.0
2014-Dec-14 02:28N 56°01' W 003°00'0 0.0
2014-Dec-14 01:28N 56°01' W 003°00'0 0.0
2014-Dec-14 00:31N 56°01' W 003°00'0 0.0
2014-Dec-13 23:31N 56°01' W 003°00'0 0.0
2014-Dec-13 22:31N 56°01' W 003°00'0 0.0
2014-Dec-13 21:31N 56°01' W 003°00'0 0.0
2014-Dec-13 20:31N 56°01' W 003°00'0 0.0
2014-Dec-13 19:31N 56°01' W 003°00'0 0.0
2014-Dec-13 18:31N 56°01' W 003°00'0 0.0
2014-Dec-13 17:22N 56°01' W 003°00'0 0.0
2014-Dec-13 16:25N 56°01' W 003°00'0 0.0
2014-Dec-13 15:25N 56°01' W 003°00'0 0.0
2014-Dec-13 14:25N 56°01' W 003°00'0 0.0
2014-Dec-13 13:28N 56°01' W 003°00'0 0.0
2014-Dec-13 12:28N 56°01' W 003°00'0 0.0
2014-Dec-13 11:28N 56°01' W 003°00'0 0.0
2014-Dec-13 10:31N 56°01' W 003°00'0 0.0
2014-Dec-13 09:31N 56°01' W 003°00'0 0.0
2014-Dec-13 08:28N 56°01' W 003°00'0 0.0
2014-Dec-13 07:31N 56°01' W 003°00'0 0.0
2014-Dec-13 06:31N 56°01' W 003°00'0 0.0
2014-Dec-13 05:31N 56°01' W 003°00'0 0.0
2014-Dec-13 04:31N 56°01' W 003°00'0 0.0
2014-Dec-13 03:22N 56°01' W 003°00'0 0.0
2014-Dec-13 02:25N 56°01' W 003°00'0 0.0
2014-Dec-13 01:22N 56°01' W 003°00'0 0.0
2014-Dec-13 00:25N 56°01' W 003°00'0 0.0
2014-Dec-12 23:28N 56°01' W 003°00'0 0.0
2014-Dec-12 22:28N 56°01' W 003°00'0 0.0
2014-Dec-12 21:28N 56°01' W 003°00'0 0.0
2014-Dec-12 20:31N 56°01' W 003°00'0 0.0
2014-Dec-12 19:31N 56°01' W 003°00'0 0.0
2014-Dec-12 18:31N 56°01' W 003°00'0 0.0
2014-Dec-12 17:31N 56°01' W 003°00'0 0.0
2014-Dec-12 16:31N 56°01' W 003°00'0 0.0
2014-Dec-12 15:31N 56°01' W 003°00'0 0.0
2014-Dec-12 14:31N 56°01' W 003°00'0 0.0
2014-Dec-12 13:22N 56°01' W 003°00'0 0.0
2014-Dec-12 12:22N 56°01' W 003°00'0 0.0
2014-Dec-12 11:25N 56°01' W 003°00'0 0.0
2014-Dec-12 10:25N 56°01' W 003°00'0 0.0
2014-Dec-12 09:28N 56°01' W 003°00'0 0.0
2014-Dec-12 08:28N 56°01' W 003°00'0 0.0
2014-Dec-12 07:28N 56°01' W 003°00'0 0.0
2014-Dec-12 06:31N 56°01' W 003°00'0 0.0
2014-Dec-12 05:31N 56°01' W 003°00'0 0.0
2014-Dec-12 04:31N 56°01' W 003°00'0 0.0
2014-Dec-12 03:31N 56°01' W 003°00'0 0.0
2014-Dec-12 02:31N 56°01' W 003°00'0 0.0
2014-Dec-12 01:31N 56°01' W 003°00'0 0.0
2014-Dec-12 00:31N 56°01' W 003°00'0 0.0
2014-Dec-11 23:22N 56°01' W 003°00'0 0.0
2014-Dec-11 22:25N 56°01' W 003°00'0 0.0
2014-Dec-11 21:25N 56°01' W 003°00'0 0.0
2014-Dec-11 20:25N 56°01' W 003°00'0 0.0
2014-Dec-11 19:28N 56°01' W 003°00'0 0.0
2014-Dec-11 18:28N 56°01' W 003°00'0 0.0
2014-Dec-11 17:28N 56°01' W 003°00'0 0.0
2014-Dec-11 16:28N 56°01' W 003°00'0 0.0
2014-Dec-11 12:31N 56°01' W 003°00'0 0.0
2014-Dec-11 11:31N 56°01' W 003°00'0 0.0
2014-Dec-11 10:31N 56°01' W 003°00'0 0.0
2014-Dec-11 09:22N 56°01' W 003°00'0 0.0
2014-Dec-11 08:25N 56°01' W 003°00'0 0.0
2014-Dec-11 07:25N 56°01' W 003°00'0 0.0
2014-Dec-11 06:25N 56°01' W 003°00'0 0.0
2014-Dec-11 05:28N 56°01' W 003°00'0 0.0
2014-Dec-11 04:28N 56°01' W 003°00'0 0.0
2014-Dec-11 03:28N 56°01' W 003°00'0 0.0
2014-Dec-11 02:31N 56°01' W 003°00'0 0.0
2014-Dec-11 01:31N 56°01' W 003°00'0 0.0
2014-Dec-11 00:31N 56°01' W 003°00'0 0.0
2014-Dec-10 23:31N 56°01' W 003°00'0 0.0
2014-Dec-10 22:31N 56°01' W 003°00'0 0.0
2014-Dec-10 21:31N 56°01' W 003°00'0 0.0
2014-Dec-10 20:31N 56°01' W 003°00'0 0.0
2014-Dec-10 19:22N 56°01' W 003°00'0 0.0
2014-Dec-10 18:25N 56°01' W 003°00'0 0.0
2014-Dec-10 17:25N 56°01' W 003°00'0 0.0
2014-Dec-10 16:25N 56°01' W 003°00'0 0.0
2014-Dec-10 15:28N 56°01' W 003°00'0 0.0
2014-Dec-10 14:28N 56°01' W 003°00'0 0.0
2014-Dec-10 13:28N 56°01' W 003°00'0 0.0
2014-Dec-10 12:31N 56°01' W 003°00'0 0.0
2014-Dec-10 11:31N 56°01' W 003°00'0 0.0
2014-Dec-10 10:31N 56°01' W 003°00'0 0.0
2014-Dec-10 09:31N 56°01' W 003°00'0 0.0
2014-Dec-10 08:31N 56°01' W 003°00'0 0.0
2014-Dec-10 07:31N 56°01' W 003°00'0 0.0
2014-Dec-10 06:31N 56°01' W 003°00'0 0.0
2014-Dec-10 05:22N 56°01' W 003°00'0 0.0
2014-Dec-10 04:25N 56°01' W 003°00'0 0.0
2014-Dec-10 03:25N 56°01' W 003°00'0 0.0
2014-Dec-10 02:25N 56°01' W 003°00'0 0.0
2014-Dec-10 01:28N 56°01' W 003°00'0 0.0
2014-Dec-10 00:28N 56°01' W 003°00'0 0.0
2014-Dec-09 23:28N 56°01' W 003°00'0 0.0
2014-Dec-09 22:31N 56°01' W 003°00'0 0.0
2014-Dec-09 21:31N 56°01' W 003°00'0 0.0
2014-Dec-09 20:31N 56°01' W 003°00'0 0.0
2014-Dec-09 19:31N 56°01' W 003°00'0 0.0
2014-Dec-09 18:31N 56°01' W 003°00'0 0.0
2014-Dec-09 17:22N 56°01' W 003°00'0 0.0
2014-Dec-09 16:31N 56°01' W 003°00'0 0.0
2014-Dec-09 15:22N 56°01' W 003°00'0 0.0
2014-Dec-09 14:25N 56°01' W 003°00'0 0.0
2014-Dec-09 13:25N 56°01' W 003°00'0 0.0
2014-Dec-09 12:25N 56°01' W 003°00'0 0.0
2014-Dec-09 11:28N 56°01' W 003°00'0 0.0
2014-Dec-09 10:25N 56°01' W 003°00'0 0.0
2014-Dec-09 09:28N 56°01' W 003°00'0 0.0
2014-Dec-09 08:31N 56°01' W 003°00'0 0.0
2014-Dec-09 07:31N 56°01' W 003°00'0 0.0
2014-Dec-09 06:31N 56°01' W 003°00'0 0.0
2014-Dec-09 05:31N 56°01' W 003°00'0 0.0
2014-Dec-09 04:31N 56°01' W 003°00'0 0.0
2014-Dec-09 03:31N 56°01' W 003°00'0 0.0
2014-Dec-09 02:31N 56°01' W 003°00'0 0.0
2014-Dec-09 01:22N 56°01' W 003°00'0 0.0
2014-Dec-09 00:25N 56°01' W 003°00'0 0.0
2014-Dec-08 23:25N 56°01' W 003°00'0 0.0
2014-Dec-08 22:25N 56°01' W 003°00'0 0.0
2014-Dec-08 21:28N 56°01' W 003°00'0 0.0
2014-Dec-08 20:28N 56°01' W 003°00'0 0.0
2014-Dec-08 19:28N 56°01' W 003°00'0 0.0
2014-Dec-08 18:31N 56°01' W 003°00'0 0.0
2014-Dec-08 17:28N 56°01' W 003°00'0 0.0
2014-Dec-08 16:31N 56°01' W 003°00'0 0.0
2014-Dec-08 15:31N 56°01' W 003°00'0 0.0
2014-Dec-08 14:19N 56°01' W 003°00'0 0.0
2014-Dec-08 13:31N 56°01' W 003°00'0 0.0
2014-Dec-08 12:31N 56°01' W 003°00'0 0.0
2014-Dec-08 11:22N 56°01' W 003°00'0 0.0
2014-Dec-08 10:25N 56°01' W 003°00'0 0.0
2014-Dec-08 09:25N 56°01' W 003°00'0 0.0
2014-Dec-08 08:25N 56°01' W 003°00'0 0.0
2014-Dec-08 07:28N 56°01' W 003°00'0 0.0
2014-Dec-08 06:28N 56°01' W 003°00'0 0.0
2014-Dec-08 05:28N 56°01' W 003°00'0 0.0
2014-Dec-08 04:31N 56°01' W 003°00'0 0.0
2014-Dec-08 03:31N 56°01' W 003°00'0 0.0
2014-Dec-08 02:31N 56°01' W 003°00'0 0.0
2014-Dec-08 01:31N 56°01' W 003°00'0 0.0
2014-Dec-08 00:31N 56°01' W 003°00'0 0.0
2014-Dec-07 23:22N 56°01' W 003°00'0 0.0
2014-Dec-07 22:31N 56°01' W 003°00'0 0.0
2014-Dec-07 21:22N 56°01' W 003°00'0 0.0
2014-Dec-07 20:22N 56°01' W 003°00'0 0.0
2014-Dec-07 19:22N 56°01' W 003°00'0 0.0
2014-Dec-07 18:25N 56°01' W 003°00'0 0.0
2014-Dec-07 17:28N 56°01' W 003°00'0 0.0
2014-Dec-07 16:28N 56°01' W 003°00'0 0.0
2014-Dec-07 15:28N 56°01' W 003°00'0 0.0
2014-Dec-07 14:31N 56°01' W 003°00'0 0.0
2014-Dec-07 13:31N 56°01' W 003°00'0 0.0
2014-Dec-07 12:31N 56°01' W 003°00'0 0.0
2014-Dec-07 11:28N 56°01' W 003°00'0 0.0
2014-Dec-07 10:31N 56°01' W 003°00'0 0.0
2014-Dec-07 09:31N 56°01' W 003°00'0 0.0
2014-Dec-07 08:31N 56°01' W 003°00'0 0.0
2014-Dec-07 07:22N 56°01' W 003°00'0 0.0
2014-Dec-07 06:22N 56°01' W 003°00'0 0.0
2014-Dec-07 05:25N 56°01' W 003°00'0 0.0
2014-Dec-07 04:25N 56°01' W 003°00'0 0.0
2014-Dec-07 03:28N 56°01' W 003°00'0 0.0
2014-Dec-07 02:28N 56°01' W 003°00'0 0.0
2014-Dec-07 01:28N 56°01' W 003°00'0 0.0
2014-Dec-07 00:31N 56°01' W 003°00'0 0.0
2014-Dec-06 23:31N 56°01' W 003°00'0 0.0
2014-Dec-06 22:31N 56°01' W 003°00'0 0.0
2014-Dec-06 21:31N 56°01' W 003°00'0 0.0
2014-Dec-06 20:19N 56°01' W 003°00'0 0.0
2014-Dec-06 19:31N 56°01' W 003°00'0 0.0
2014-Dec-06 18:31N 56°01' W 003°00'0 0.0
2014-Dec-06 17:22N 56°01' W 003°00'0 0.0
2014-Dec-06 16:22N 56°01' W 003°00'0 0.0
2014-Dec-06 15:25N 56°01' W 003°00'0 0.0
2014-Dec-06 14:22N 56°01' W 003°00'0 0.0
2014-Dec-06 13:28N 56°01' W 003°00'0 0.0
2014-Dec-06 12:28N 56°01' W 003°00'0 0.0
2014-Dec-06 11:28N 56°01' W 003°00'0 0.0
2014-Dec-06 10:31N 56°01' W 003°00'0 0.0
2014-Dec-06 09:31N 56°01' W 003°00'0 0.0
2014-Dec-06 08:31N 56°01' W 003°00'0 0.0
2014-Dec-06 07:31N 56°01' W 003°00'0 0.0
2014-Dec-06 06:31N 56°01' W 003°00'0 0.0
2014-Dec-06 05:22N 56°01' W 003°00'0 0.0
2014-Dec-06 04:31N 56°01' W 003°00'0 0.0
2014-Dec-06 03:22N 56°01' W 003°00'0 0.0
2014-Dec-06 02:25N 56°01' W 003°00'0 0.0
2014-Dec-06 01:25N 56°01' W 003°00'0 0.0
2014-Dec-06 00:25N 56°01' W 003°00'0 0.0
2014-Dec-05 23:28N 56°01' W 003°00'0 0.0
2014-Dec-05 22:28N 56°01' W 003°00'0 0.0
2014-Dec-05 21:28N 56°01' W 003°00'0 0.0
2014-Dec-05 20:31N 56°01' W 003°00'0 0.0
2014-Dec-05 19:31N 56°01' W 003°00'0 0.0
2014-Dec-05 18:31N 56°01' W 003°00'0 0.0
2014-Dec-05 17:31N 56°01' W 003°00'0 0.0
2014-Dec-05 16:31N 56°01' W 003°00'0 0.0
2014-Dec-05 15:31N 56°01' W 003°00'0 0.0
2014-Dec-05 14:07N 56°01' W 003°00'0 0.0
2014-Dec-05 13:19N 56°01' W 003°00'0 0.0
2014-Dec-05 12:25N 56°01' W 003°00'0 0.0
2014-Dec-05 11:25N 56°01' W 003°00'0 0.0
2014-Dec-05 10:25N 56°01' W 003°00'0 0.0
2014-Dec-05 09:28N 56°01' W 003°00'0 0.0
2014-Dec-05 08:28N 56°01' W 003°00'0 0.0
2014-Dec-05 07:28N 56°01' W 003°00'0 0.0
2014-Dec-05 06:28N 56°01' W 003°00'0 0.0
2014-Dec-05 05:31N 56°01' W 003°00'  
Track history (hours):
 
Tides and Currents Weather Stations Pressure Air Temp Water Temp Dewpoint Dewpoint Depression Visibility Wind Speed Wind Dir Waves Ship Positions

Munin Explorer

Last reported at 2014-Dec-15 05:04 UTC. Time now 2014-Dec-22 19:32 UTC.
Position N 56°35' W 002°14'.

Length 60 m; draft 7 m.

Type: Other ship. MMSI: 210228000.

Date/timePositionNaut miles runAvg speedWind from/ knotsBaromVisibWave heightAir tempDewpointWater temp
2014-Dec-15 05:04N 56°35' W 002°14'3 5.8
2014-Dec-15 04:33N 56°32' W 002°13'6 6.3
2014-Dec-15 03:33N 56°25' W 002°13'7 7.5
2014-Dec-15 02:33N 56°19' W 002°20'8 7.7
2014-Dec-15 01:33N 56°12' W 002°26'9 9.1
2014-Dec-15 00:33N 56°08' W 002°41'10 9.7
2014-Dec-14 23:33N 56°04' W 002°57'3 3.2
2014-Dec-14 22:31N 56°01' W 003°00'0 0.0
2014-Dec-14 21:22N 56°01' W 003°00'0 0.0
2014-Dec-14 20:25N 56°01' W 003°00'0 0.0
2014-Dec-14 19:25N 56°01' W 003°00'0 0.0
2014-Dec-14 18:25N 56°01' W 003°00'0 0.0
2014-Dec-14 17:28N 56°01' W 003°00'0 0.0
2014-Dec-14 16:22N 56°01' W 003°00'0 0.0
2014-Dec-14 15:28N 56°01' W 003°00'0 0.0
2014-Dec-14 14:31N 56°01' W 003°00'0 0.0
2014-Dec-14 13:31N 56°01' W 003°00'0 0.0
2014-Dec-14 12:31N 56°01' W 003°00'0 0.0
2014-Dec-14 11:31N 56°01' W 003°00'0 0.0
2014-Dec-14 10:31N 56°01' W 003°00'0 0.0
2014-Dec-14 09:31N 56°01' W 003°00'0 0.0
2014-Dec-14 08:31N 56°01' W 003°00'0 0.0
2014-Dec-14 07:22N 56°01' W 003°00'0 0.0
2014-Dec-14 06:25N 56°01' W 003°00'0 0.0
2014-Dec-14 05:25N 56°01' W 003°00'0 0.0
2014-Dec-14 04:25N 56°01' W 003°00'0 0.0
2014-Dec-14 03:28N 56°01' W 003°00'0 0.0
2014-Dec-14 02:28N 56°01' W 003°00'0 0.0
2014-Dec-14 01:28N 56°01' W 003°00'0 0.0
2014-Dec-14 00:31N 56°01' W 003°00'0 0.0
2014-Dec-13 23:31N 56°01' W 003°00'0 0.0
2014-Dec-13 22:31N 56°01' W 003°00'0 0.0
2014-Dec-13 21:31N 56°01' W 003°00'0 0.0
2014-Dec-13 20:31N 56°01' W 003°00'0 0.0
2014-Dec-13 19:31N 56°01' W 003°00'0 0.0
2014-Dec-13 18:31N 56°01' W 003°00'0 0.0
2014-Dec-13 17:22N 56°01' W 003°00'0 0.0
2014-Dec-13 16:25N 56°01' W 003°00'0 0.0
2014-Dec-13 15:25N 56°01' W 003°00'0 0.0
2014-Dec-13 14:25N 56°01' W 003°00'0 0.0
2014-Dec-13 13:28N 56°01' W 003°00'0 0.0
2014-Dec-13 12:28N 56°01' W 003°00'0 0.0
2014-Dec-13 11:28N 56°01' W 003°00'0 0.0
2014-Dec-13 10:31N 56°01' W 003°00'0 0.0
2014-Dec-13 09:31N 56°01' W 003°00'0 0.0
2014-Dec-13 08:28N 56°01' W 003°00'0 0.0
2014-Dec-13 07:31N 56°01' W 003°00'0 0.0
2014-Dec-13 06:31N 56°01' W 003°00'0 0.0
2014-Dec-13 05:31N 56°01' W 003°00'0 0.0
2014-Dec-13 04:31N 56°01' W 003°00'0 0.0
2014-Dec-13 03:22N 56°01' W 003°00'0 0.0
2014-Dec-13 02:25N 56°01' W 003°00'0 0.0
2014-Dec-13 01:22N 56°01' W 003°00'0 0.0
2014-Dec-13 00:25N 56°01' W 003°00'0 0.0
2014-Dec-12 23:28N 56°01' W 003°00'0 0.0
2014-Dec-12 22:28N 56°01' W 003°00'0 0.0
2014-Dec-12 21:28N 56°01' W 003°00'0 0.0
2014-Dec-12 20:31N 56°01' W 003°00'0 0.0
2014-Dec-12 19:31N 56°01' W 003°00'0 0.0
2014-Dec-12 18:31N 56°01' W 003°00'0 0.0
2014-Dec-12 17:31N 56°01' W 003°00'0 0.0
2014-Dec-12 16:31N 56°01' W 003°00'0 0.0
2014-Dec-12 15:31N 56°01' W 003°00'0 0.0
2014-Dec-12 14:31N 56°01' W 003°00'0 0.0
2014-Dec-12 13:22N 56°01' W 003°00'0 0.0
2014-Dec-12 12:22N 56°01' W 003°00'0 0.0
2014-Dec-12 11:25N 56°01' W 003°00'0 0.0
2014-Dec-12 10:25N 56°01' W 003°00'0 0.0
2014-Dec-12 09:28N 56°01' W 003°00'0 0.0
2014-Dec-12 08:28N 56°01' W 003°00'0 0.0
2014-Dec-12 07:28N 56°01' W 003°00'0 0.0
2014-Dec-12 06:31N 56°01' W 003°00'0 0.0
2014-Dec-12 05:31N 56°01' W 003°00'0 0.0
2014-Dec-12 04:31N 56°01' W 003°00'0 0.0
2014-Dec-12 03:31N 56°01' W 003°00'0 0.0
2014-Dec-12 02:31N 56°01' W 003°00'0 0.0
2014-Dec-12 01:31N 56°01' W 003°00'0 0.0
2014-Dec-12 00:31N 56°01' W 003°00'0 0.0
2014-Dec-11 23:22N 56°01' W 003°00'0 0.0
2014-Dec-11 22:25N 56°01' W 003°00'0 0.0
2014-Dec-11 21:25N 56°01' W 003°00'0 0.0
2014-Dec-11 20:25N 56°01' W 003°00'0 0.0
2014-Dec-11 19:28N 56°01' W 003°00'0 0.0
2014-Dec-11 18:28N 56°01' W 003°00'0 0.0
2014-Dec-11 17:28N 56°01' W 003°00'0 0.0
2014-Dec-11 16:28N 56°01' W 003°00'0 0.0
2014-Dec-11 12:31N 56°01' W 003°00'0 0.0
2014-Dec-11 11:31N 56°01' W 003°00'0 0.0
2014-Dec-11 10:31N 56°01' W 003°00'0 0.0
2014-Dec-11 09:22N 56°01' W 003°00'0 0.0
2014-Dec-11 08:25N 56°01' W 003°00'0 0.0
2014-Dec-11 07:25N 56°01' W 003°00'0 0.0
2014-Dec-11 06:25N 56°01' W 003°00'0 0.0
2014-Dec-11 05:28N 56°01' W 003°00'0 0.0
2014-Dec-11 04:28N 56°01' W 003°00'0 0.0
2014-Dec-11 03:28N 56°01' W 003°00'0 0.0
2014-Dec-11 02:31N 56°01' W 003°00'0 0.0
2014-Dec-11 01:31N 56°01' W 003°00'0 0.0
2014-Dec-11 00:31N 56°01' W 003°00'0 0.0
2014-Dec-10 23:31N 56°01' W 003°00'0 0.0
2014-Dec-10 22:31N 56°01' W 003°00'0 0.0
2014-Dec-10 21:31N 56°01' W 003°00'0 0.0
2014-Dec-10 20:31N 56°01' W 003°00'0 0.0
2014-Dec-10 19:22N 56°01' W 003°00'0 0.0
2014-Dec-10 18:25N 56°01' W 003°00'0 0.0
2014-Dec-10 17:25N 56°01' W 003°00'0 0.0
2014-Dec-10 16:25N 56°01' W 003°00'0 0.0
2014-Dec-10 15:28N 56°01' W 003°00'0 0.0
2014-Dec-10 14:28N 56°01' W 003°00'0 0.0
2014-Dec-10 13:28N 56°01' W 003°00'0 0.0
2014-Dec-10 12:31N 56°01' W 003°00'0 0.0
2014-Dec-10 11:31N 56°01' W 003°00'0 0.0
2014-Dec-10 10:31N 56°01' W 003°00'0 0.0
2014-Dec-10 09:31N 56°01' W 003°00'0 0.0
2014-Dec-10 08:31N 56°01' W 003°00'0 0.0
2014-Dec-10 07:31N 56°01' W 003°00'0 0.0
2014-Dec-10 06:31N 56°01' W 003°00'0 0.0
2014-Dec-10 05:22N 56°01' W 003°00'0 0.0
2014-Dec-10 04:25N 56°01' W 003°00'0 0.0
2014-Dec-10 03:25N 56°01' W 003°00'0 0.0
2014-Dec-10 02:25N 56°01' W 003°00'0 0.0
2014-Dec-10 01:28N 56°01' W 003°00'0 0.0
2014-Dec-10 00:28N 56°01' W 003°00'0 0.0
2014-Dec-09 23:28N 56°01' W 003°00'0 0.0
2014-Dec-09 22:31N 56°01' W 003°00'0 0.0
2014-Dec-09 21:31N 56°01' W 003°00'0 0.0
2014-Dec-09 20:31N 56°01' W 003°00'0 0.0
2014-Dec-09 19:31N 56°01' W 003°00'0 0.0
2014-Dec-09 18:31N 56°01' W 003°00'0 0.0
2014-Dec-09 17:22N 56°01' W 003°00'0 0.0
2014-Dec-09 16:31N 56°01' W 003°00'0 0.0
2014-Dec-09 15:22N 56°01' W 003°00'0 0.0
2014-Dec-09 14:25N 56°01' W 003°00'0 0.0
2014-Dec-09 13:25N 56°01' W 003°00'0 0.0
2014-Dec-09 12:25N 56°01' W 003°00'0 0.0
2014-Dec-09 11:28N 56°01' W 003°00'0 0.0
2014-Dec-09 10:25N 56°01' W 003°00'0 0.0
2014-Dec-09 09:28N 56°01' W 003°00'0 0.0
2014-Dec-09 08:31N 56°01' W 003°00'0 0.0
2014-Dec-09 07:31N 56°01' W 003°00'0 0.0
2014-Dec-09 06:31N 56°01' W 003°00'0 0.0
2014-Dec-09 05:31N 56°01' W 003°00'0 0.0
2014-Dec-09 04:31N 56°01' W 003°00'0 0.0
2014-Dec-09 03:31N 56°01' W 003°00'0 0.0
2014-Dec-09 02:31N 56°01' W 003°00'0 0.0
2014-Dec-09 01:22N 56°01' W 003°00'0 0.0
2014-Dec-09 00:25N 56°01' W 003°00'0 0.0
2014-Dec-08 23:25N 56°01' W 003°00'0 0.0
2014-Dec-08 22:25N 56°01' W 003°00'0 0.0
2014-Dec-08 21:28N 56°01' W 003°00'0 0.0
2014-Dec-08 20:28N 56°01' W 003°00'0 0.0
2014-Dec-08 19:28N 56°01' W 003°00'0 0.0
2014-Dec-08 18:31N 56°01' W 003°00'0 0.0
2014-Dec-08 17:28N 56°01' W 003°00'0 0.0
2014-Dec-08 16:31N 56°01' W 003°00'0 0.0
2014-Dec-08 15:31N 56°01' W 003°00'0 0.0
2014-Dec-08 14:19N 56°01' W 003°00'0 0.0
2014-Dec-08 13:31N 56°01' W 003°00'0 0.0
2014-Dec-08 12:31N 56°01' W 003°00'0 0.0
2014-Dec-08 11:22N 56°01' W 003°00'0 0.0
2014-Dec-08 10:25N 56°01' W 003°00'0 0.0
2014-Dec-08 09:25N 56°01' W 003°00'0 0.0
2014-Dec-08 08:25N 56°01' W 003°00'0 0.0
2014-Dec-08 07:28N 56°01' W 003°00'0 0.0
2014-Dec-08 06:28N 56°01' W 003°00'0 0.0
2014-Dec-08 05:28N 56°01' W 003°00'0 0.0
2014-Dec-08 04:31N 56°01' W 003°00'0 0.0
2014-Dec-08 03:31N 56°01' W 003°00'0 0.0
2014-Dec-08 02:31N 56°01' W 003°00'0 0.0
2014-Dec-08 01:31N 56°01' W 003°00'0 0.0
2014-Dec-08 00:31N 56°01' W 003°00'0 0.0
2014-Dec-07 23:22N 56°01' W 003°00'0 0.0
2014-Dec-07 22:31N 56°01' W 003°00'0 0.0
2014-Dec-07 21:22N 56°01' W 003°00'0 0.0
2014-Dec-07 20:22N 56°01' W 003°00'0 0.0
2014-Dec-07 19:22N 56°01' W 003°00'0 0.0
2014-Dec-07 18:25N 56°01' W 003°00'0 0.0
2014-Dec-07 17:28N 56°01' W 003°00'0 0.0
2014-Dec-07 16:28N 56°01' W 003°00'0 0.0
2014-Dec-07 15:28N 56°01' W 003°00'0 0.0
2014-Dec-07 14:31N 56°01' W 003°00'0 0.0
2014-Dec-07 13:31N 56°01' W 003°00'0 0.0
2014-Dec-07 12:31N 56°01' W 003°00'0 0.0
2014-Dec-07 11:28N 56°01' W 003°00'0 0.0
2014-Dec-07 10:31N 56°01' W 003°00'0 0.0
2014-Dec-07 09:31N 56°01' W 003°00'0 0.0
2014-Dec-07 08:31N 56°01' W 003°00'0 0.0
2014-Dec-07 07:22N 56°01' W 003°00'0 0.0
2014-Dec-07 06:22N 56°01' W 003°00'0 0.0
2014-Dec-07 05:25N 56°01' W 003°00'0 0.0
2014-Dec-07 04:25N 56°01' W 003°00'0 0.0
2014-Dec-07 03:28N 56°01' W 003°00'0 0.0
2014-Dec-07 02:28N 56°01' W 003°00'0 0.0
2014-Dec-07 01:28N 56°01' W 003°00'0 0.0
2014-Dec-07 00:31N 56°01' W 003°00'0 0.0
2014-Dec-06 23:31N 56°01' W 003°00'0 0.0
2014-Dec-06 22:31N 56°01' W 003°00'0 0.0
2014-Dec-06 21:31N 56°01' W 003°00'0 0.0
2014-Dec-06 20:19N 56°01' W 003°00'0 0.0
2014-Dec-06 19:31N 56°01' W 003°00'0 0.0
2014-Dec-06 18:31N 56°01' W 003°00'0 0.0
2014-Dec-06 17:22N 56°01' W 003°00'0 0.0
2014-Dec-06 16:22N 56°01' W 003°00'0 0.0
2014-Dec-06 15:25N 56°01' W 003°00'0 0.0
2014-Dec-06 14:22N 56°01' W 003°00'0 0.0
2014-Dec-06 13:28N 56°01' W 003°00'0 0.0
2014-Dec-06 12:28N 56°01' W 003°00'0 0.0
2014-Dec-06 11:28N 56°01' W 003°00'0 0.0
2014-Dec-06 10:31N 56°01' W 003°00'0 0.0
2014-Dec-06 09:31N 56°01' W 003°00'0 0.0
2014-Dec-06 08:31N 56°01' W 003°00'0 0.0
2014-Dec-06 07:31N 56°01' W 003°00'0 0.0
2014-Dec-06 06:31N 56°01' W 003°00'0 0.0
2014-Dec-06 05:22N 56°01' W 003°00'0 0.0
2014-Dec-06 04:31N 56°01' W 003°00'0 0.0
2014-Dec-06 03:22N 56°01' W 003°00'0 0.0
2014-Dec-06 02:25N 56°01' W 003°00'0 0.0
2014-Dec-06 01:25N 56°01' W 003°00'0 0.0
2014-Dec-06 00:25N 56°01' W 003°00'0 0.0
2014-Dec-05 23:28N 56°01' W 003°00'0 0.0
2014-Dec-05 22:28N 56°01' W 003°00'0 0.0
2014-Dec-05 21:28N 56°01' W 003°00'0 0.0
2014-Dec-05 20:31N 56°01' W 003°00'0 0.0
2014-Dec-05 19:31N 56°01' W 003°00'0 0.0
2014-Dec-05 18:31N 56°01' W 003°00'0 0.0
2014-Dec-05 17:31N 56°01' W 003°00'0 0.0
2014-Dec-05 16:31N 56°01' W 003°00'0 0.0
2014-Dec-05 15:31N 56°01' W 003°00'0 0.0
2014-Dec-05 14:07N 56°01' W 003°00'0 0.0
2014-Dec-05 13:19N 56°01' W 003°00'0 0.0
2014-Dec-05 12:25N 56°01' W 003°00'0 0.0
2014-Dec-05 11:25N 56°01' W 003°00'0 0.0
2014-Dec-05 10:25N 56°01' W 003°00'0 0.0
2014-Dec-05 09:28N 56°01' W 003°00'0 0.0
2014-Dec-05 08:28N 56°01' W 003°00'0 0.0
2014-Dec-05 07:28N 56°01' W 003°00'0 0.0
2014-Dec-05 06:28N 56°01' W 003°00'0 0.0
2014-Dec-05 05:31N 56°01' W 003°00'  

Dump ship's entire track history